sensor_id;sensor_type;location;lat;lon;timestamp;P1;durP1;ratioP1;P2;durP2;ratioP2
27907;SDS011;15249;48.092;11.484;2024-02-15T00:00:29;3.900001;;;2.4;;
27907;SDS011;15249;48.092;11.484;2024-02-15T00:01:30;3.900001;;;2.4;;
27907;SDS011;15249;48.092;11.484;2024-02-15T00:02:30;3.900001;;;2.4;;
27907;SDS011;15249;48.092;11.484;2024-02-15T00:03:31;3.900001;;;2.4;;
27907;SDS011;15249;48.092;11.484;2024-02-15T00:04:33;3.900001;;;2.4;;
27907;SDS011;15249;48.092;11.484;2024-02-15T00:05:36;3.900001;;;2.4;;
27907;SDS011;15249;48.092;11.484;2024-02-15T00:06:37;3.900001;;;2.4;;
27907;SDS011;15249;48.092;11.484;2024-02-15T00:07:38;3.900001;;;2.4;;
27907;SDS011;15249;48.092;11.484;2024-02-15T00:08:39;3.900001;;;2.4;;
27907;SDS011;15249;48.092;11.484;2024-02-15T00:09:39;3.900001;;;2.4;;
27907;SDS011;15249;48.092;11.484;2024-02-15T00:10:40;2.5;;;2.3;;
27907;SDS011;15249;48.092;11.484;2024-02-15T00:11:40;2.5;;;2.3;;
27907;SDS011;15249;48.092;11.484;2024-02-15T00:12:40;2.5;;;2.3;;
27907;SDS011;15249;48.092;11.484;2024-02-15T00:13:41;2.5;;;2.3;;
27907;SDS011;15249;48.092;11.484;2024-02-15T00:14:42;2.5;;;2.3;;
27907;SDS011;15249;48.092;11.484;2024-02-15T00:15:43;2.5;;;2.3;;
27907;SDS011;15249;48.092;11.484;2024-02-15T00:16:43;2.5;;;2.3;;
27907;SDS011;15249;48.092;11.484;2024-02-15T00:17:44;2.5;;;2.3;;
27907;SDS011;15249;48.092;11.484;2024-02-15T00:18:45;2.5;;;2.3;;
27907;SDS011;15249;48.092;11.484;2024-02-15T00:19:46;2.5;;;2.3;;
27907;SDS011;15249;48.092;11.484;2024-02-15T00:20:47;2.5;;;2.3;;
27907;SDS011;15249;48.092;11.484;2024-02-15T00:21:47;3.35;;;2.5;;
27907;SDS011;15249;48.092;11.484;2024-02-15T00:22:49;3.35;;;2.5;;
27907;SDS011;15249;48.092;11.484;2024-02-15T00:23:50;3.35;;;2.5;;
27907;SDS011;15249;48.092;11.484;2024-02-15T00:24:50;3.35;;;2.5;;
27907;SDS011;15249;48.092;11.484;2024-02-15T00:25:51;3.35;;;2.5;;
27907;SDS011;15249;48.092;11.484;2024-02-15T00:26:52;3.35;;;2.5;;
27907;SDS011;15249;48.092;11.484;2024-02-15T00:27:52;3.35;;;2.5;;
27907;SDS011;15249;48.092;11.484;2024-02-15T00:28:53;3.35;;;2.5;;
27907;SDS011;15249;48.092;11.484;2024-02-15T00:29:53;3.35;;;2.5;;
27907;SDS011;15249;48.092;11.484;2024-02-15T00:30:53;3.35;;;2.5;;
27907;SDS011;15249;48.092;11.484;2024-02-15T00:31:55;3.35;;;2.5;;
27907;SDS011;15249;48.092;11.484;2024-02-15T00:32:55;3.35;;;2.5;;
27907;SDS011;15249;48.092;11.484;2024-02-15T00:33:55;3.35;;;2.5;;
27907;SDS011;15249;48.092;11.484;2024-02-15T00:34:56;3.35;;;2.5;;
27907;SDS011;15249;48.092;11.484;2024-02-15T00:35:57;3.35;;;2.5;;
27907;SDS011;15249;48.092;11.484;2024-02-15T00:36:57;3.35;;;2.5;;
27907;SDS011;15249;48.092;11.484;2024-02-15T00:37:58;3.35;;;2.5;;
27907;SDS011;15249;48.092;11.484;2024-02-15T00:38:59;3.35;;;2.5;;
27907;SDS011;15249;48.092;11.484;2024-02-15T00:39:59;3.35;;;2.5;;
27907;SDS011;15249;48.092;11.484;2024-02-15T00:40:59;3.35;;;2.5;;
27907;SDS011;15249;48.092;11.484;2024-02-15T00:42:00;3.35;;;2.5;;
27907;SDS011;15249;48.092;11.484;2024-02-15T00:43:00;3.35;;;2.5;;
27907;SDS011;15249;48.092;11.484;2024-02-15T00:44:01;3.35;;;2.5;;
27907;SDS011;15249;48.092;11.484;2024-02-15T00:45:02;3.35;;;2.5;;
27907;SDS011;15249;48.092;11.484;2024-02-15T00:46:03;3.35;;;2.5;;
27907;SDS011;15249;48.092;11.484;2024-02-15T00:47:03;3.35;;;2.5;;
27907;SDS011;15249;48.092;11.484;2024-02-15T00:48:06;3.35;;;2.5;;
27907;SDS011;15249;48.092;11.484;2024-02-15T00:49:07;3.35;;;2.5;;
27907;SDS011;15249;48.092;11.484;2024-02-15T00:50:08;3.35;;;2.5;;
27907;SDS011;15249;48.092;11.484;2024-02-15T00:51:08;3.35;;;2.5;;
27907;SDS011;15249;48.092;11.484;2024-02-15T00:52:09;3.35;;;2.5;;
27907;SDS011;15249;48.092;11.484;2024-02-15T00:53:09;3.35;;;2.5;;
27907;SDS011;15249;48.092;11.484;2024-02-15T00:54:10;4.45;;;2.5;;
27907;SDS011;15249;48.092;11.484;2024-02-15T00:55:10;4.45;;;2.5;;
27907;SDS011;15249;48.092;11.484;2024-02-15T00:56:11;4.45;;;2.5;;
27907;SDS011;15249;48.092;11.484;2024-02-15T00:57:12;4.45;;;2.5;;
27907;SDS011;15249;48.092;11.484;2024-02-15T00:58:13;4.45;;;2.5;;
27907;SDS011;15249;48.092;11.484;2024-02-15T00:59:13;4.45;;;2.5;;
27907;SDS011;15249;48.092;11.484;2024-02-15T01:00:14;4.45;;;2.5;;
27907;SDS011;15249;48.092;11.484;2024-02-15T01:01:15;4.45;;;2.5;;
27907;SDS011;15249;48.092;11.484;2024-02-15T01:02:16;4.45;;;2.5;;
27907;SDS011;15249;48.092;11.484;2024-02-15T01:03:16;4.45;;;2.5;;
27907;SDS011;15249;48.092;11.484;2024-02-15T01:04:17;2.5;;;2.3;;
27907;SDS011;15249;48.092;11.484;2024-02-15T01:05:18;2.5;;;2.3;;
27907;SDS011;15249;48.092;11.484;2024-02-15T01:06:19;2.5;;;2.3;;
27907;SDS011;15249;48.092;11.484;2024-02-15T01:07:19;2.5;;;2.3;;
27907;SDS011;15249;48.092;11.484;2024-02-15T01:08:20;2.5;;;2.3;;
27907;SDS011;15249;48.092;11.484;2024-02-15T01:09:21;2.5;;;2.3;;
27907;SDS011;15249;48.092;11.484;2024-02-15T01:10:22;2.5;;;2.3;;
27907;SDS011;15249;48.092;11.484;2024-02-15T01:11:23;2.5;;;2.3;;
27907;SDS011;15249;48.092;11.484;2024-02-15T01:12:24;2.5;;;2.3;;
27907;SDS011;15249;48.092;11.484;2024-02-15T01:13:25;2.5;;;2.3;;
27907;SDS011;15249;48.092;11.484;2024-02-15T01:14:30;2.5;;;2.3;;
27907;SDS011;15249;48.092;11.484;2024-02-15T01:15:31;2.35;;;2.15;;
27907;SDS011;15249;48.092;11.484;2024-02-15T01:16:31;2.35;;;2.15;;
27907;SDS011;15249;48.092;11.484;2024-02-15T01:17:31;2.35;;;2.15;;
27907;SDS011;15249;48.092;11.484;2024-02-15T01:18:32;2.35;;;2.15;;
27907;SDS011;15249;48.092;11.484;2024-02-15T01:19:32;2.35;;;2.15;;
27907;SDS011;15249;48.092;11.484;2024-02-15T01:20:33;2.35;;;2.15;;
27907;SDS011;15249;48.092;11.484;2024-02-15T01:21:33;2.35;;;2.15;;
27907;SDS011;15249;48.092;11.484;2024-02-15T01:22:35;2.35;;;2.15;;
27907;SDS011;15249;48.092;11.484;2024-02-15T01:23:36;2.35;;;2.15;;
27907;SDS011;15249;48.092;11.484;2024-02-15T01:24:37;2.35;;;2.15;;
27907;SDS011;15249;48.092;11.484;2024-02-15T01:25:39;2.35;;;2.15;;
27907;SDS011;15249;48.092;11.484;2024-02-15T01:26:40;2.35;;;2.15;;
27907;SDS011;15249;48.092;11.484;2024-02-15T01:27:40;2.35;;;2.15;;
27907;SDS011;15249;48.092;11.484;2024-02-15T01:28:43;2.35;;;2.15;;
27907;SDS011;15249;48.092;11.484;2024-02-15T01:29:43;2.35;;;2.15;;
27907;SDS011;15249;48.092;11.484;2024-02-15T01:30:46;2.35;;;2.15;;
27907;SDS011;15249;48.092;11.484;2024-02-15T01:31:47;2.35;;;2.15;;
27907;SDS011;15249;48.092;11.484;2024-02-15T01:32:47;2.35;;;2.15;;
27907;SDS011;15249;48.092;11.484;2024-02-15T01:33:48;2.35;;;2.15;;
27907;SDS011;15249;48.092;11.484;2024-02-15T01:34:51;2.35;;;2.15;;
27907;SDS011;15249;48.092;11.484;2024-02-15T01:35:51;2.35;;;2.15;;
27907;SDS011;15249;48.092;11.484;2024-02-15T01:36:52;2.95;;;2.25;;
27907;SDS011;15249;48.092;11.484;2024-02-15T01:37:52;2.95;;;2.25;;
27907;SDS011;15249;48.092;11.484;2024-02-15T01:38:53;2.95;;;2.25;;
27907;SDS011;15249;48.092;11.484;2024-02-15T01:39:53;2.95;;;2.25;;
27907;SDS011;15249;48.092;11.484;2024-02-15T01:40:54;2.95;;;2.25;;
27907;SDS011;15249;48.092;11.484;2024-02-15T01:41:56;2.95;;;2.25;;
27907;SDS011;15249;48.092;11.484;2024-02-15T01:42:58;2.95;;;2.25;;
27907;SDS011;15249;48.092;11.484;2024-02-15T01:43:58;2.95;;;2.25;;
27907;SDS011;15249;48.092;11.484;2024-02-15T01:45:01;2.95;;;2.25;;
27907;SDS011;15249;48.092;11.484;2024-02-15T01:46:06;2.95;;;2.25;;
27907;SDS011;15249;48.092;11.484;2024-02-15T01:47:09;2.5;;;2;;
27907;SDS011;15249;48.092;11.484;2024-02-15T01:48:11;2.5;;;2;;
27907;SDS011;15249;48.092;11.484;2024-02-15T01:49:11;2.5;;;2;;
27907;SDS011;15249;48.092;11.484;2024-02-15T01:50:12;2.5;;;2;;
27907;SDS011;15249;48.092;11.484;2024-02-15T01:51:14;2.5;;;2;;
27907;SDS011;15249;48.092;11.484;2024-02-15T01:52:16;2.5;;;2;;
27907;SDS011;15249;48.092;11.484;2024-02-15T01:53:17;2.5;;;2;;
27907;SDS011;15249;48.092;11.484;2024-02-15T01:54:18;2.5;;;2;;
27907;SDS011;15249;48.092;11.484;2024-02-15T01:55:19;2.5;;;2;;
27907;SDS011;15249;48.092;11.484;2024-02-15T01:56:21;2.5;;;2;;
27907;SDS011;15249;48.092;11.484;2024-02-15T01:57:23;3.2;;;2.25;;
27907;SDS011;15249;48.092;11.484;2024-02-15T01:58:23;3.2;;;2.25;;
27907;SDS011;15249;48.092;11.484;2024-02-15T01:59:25;3.2;;;2.25;;
27907;SDS011;15249;48.092;11.484;2024-02-15T02:00:26;3.2;;;2.25;;
27907;SDS011;15249;48.092;11.484;2024-02-15T02:01:27;3.2;;;2.25;;
27907;SDS011;15249;48.092;11.484;2024-02-15T02:02:30;3.2;;;2.25;;
27907;SDS011;15249;48.092;11.484;2024-02-15T02:03:34;3.2;;;2.25;;
27907;SDS011;15249;48.092;11.484;2024-02-15T02:04:36;3.2;;;2.25;;
27907;SDS011;15249;48.092;11.484;2024-02-15T02:05:37;3.2;;;2.25;;
27907;SDS011;15249;48.092;11.484;2024-02-15T02:06:38;3.2;;;2.25;;
27907;SDS011;15249;48.092;11.484;2024-02-15T02:07:38;3.2;;;2.25;;
27907;SDS011;15249;48.092;11.484;2024-02-15T02:08:39;2.3;;;2.1;;
27907;SDS011;15249;48.092;11.484;2024-02-15T02:09:40;2.3;;;2.1;;
27907;SDS011;15249;48.092;11.484;2024-02-15T02:10:40;2.3;;;2.1;;
27907;SDS011;15249;48.092;11.484;2024-02-15T02:11:41;2.3;;;2.1;;
27907;SDS011;15249;48.092;11.484;2024-02-15T02:12:44;2.3;;;2.1;;
27907;SDS011;15249;48.092;11.484;2024-02-15T02:13:45;2.3;;;2.1;;
27907;SDS011;15249;48.092;11.484;2024-02-15T02:14:45;2.3;;;2.1;;
27907;SDS011;15249;48.092;11.484;2024-02-15T02:15:46;2.3;;;2.1;;
27907;SDS011;15249;48.092;11.484;2024-02-15T02:16:46;2.3;;;2.1;;
27907;SDS011;15249;48.092;11.484;2024-02-15T02:17:48;2.3;;;2.1;;
27907;SDS011;15249;48.092;11.484;2024-02-15T02:18:50;2.4;;;2.2;;
27907;SDS011;15249;48.092;11.484;2024-02-15T02:19:50;2.4;;;2.2;;
27907;SDS011;15249;48.092;11.484;2024-02-15T02:20:51;2.4;;;2.2;;
27907;SDS011;15249;48.092;11.484;2024-02-15T02:21:51;2.4;;;2.2;;
27907;SDS011;15249;48.092;11.484;2024-02-15T02:22:53;2.4;;;2.2;;
27907;SDS011;15249;48.092;11.484;2024-02-15T02:23:55;2.4;;;2.2;;
27907;SDS011;15249;48.092;11.484;2024-02-15T02:25:00;2.4;;;2.2;;
27907;SDS011;15249;48.092;11.484;2024-02-15T02:26:01;2.4;;;2.2;;
27907;SDS011;15249;48.092;11.484;2024-02-15T02:27:02;2.4;;;2.2;;
27907;SDS011;15249;48.092;11.484;2024-02-15T02:28:03;2.4;;;2.2;;
27907;SDS011;15249;48.092;11.484;2024-02-15T02:29:05;2.4;;;2.2;;
27907;SDS011;15249;48.092;11.484;2024-02-15T02:30:12;2.5;;;2.1;;
27907;SDS011;15249;48.092;11.484;2024-02-15T02:31:14;2.5;;;2.1;;
27907;SDS011;15249;48.092;11.484;2024-02-15T02:32:14;2.5;;;2.1;;
27907;SDS011;15249;48.092;11.484;2024-02-15T02:33:18;2.5;;;2.1;;
27907;SDS011;15249;48.092;11.484;2024-02-15T02:34:19;2.5;;;2.1;;
27907;SDS011;15249;48.092;11.484;2024-02-15T02:35:20;2.5;;;2.1;;
27907;SDS011;15249;48.092;11.484;2024-02-15T02:36:21;2.5;;;2.1;;
27907;SDS011;15249;48.092;11.484;2024-02-15T02:37:21;2.5;;;2.1;;
27907;SDS011;15249;48.092;11.484;2024-02-15T02:38:22;2.5;;;2.1;;
27907;SDS011;15249;48.092;11.484;2024-02-15T02:39:23;2.5;;;2.1;;
27907;SDS011;15249;48.092;11.484;2024-02-15T02:40:23;2.2;;;2;;
27907;SDS011;15249;48.092;11.484;2024-02-15T02:41:24;2.2;;;2;;
27907;SDS011;15249;48.092;11.484;2024-02-15T02:42:24;2.2;;;2;;
27907;SDS011;15249;48.092;11.484;2024-02-15T02:43:24;2.2;;;2;;
27907;SDS011;15249;48.092;11.484;2024-02-15T02:44:25;2.2;;;2;;
27907;SDS011;15249;48.092;11.484;2024-02-15T02:45:26;2.2;;;2;;
27907;SDS011;15249;48.092;11.484;2024-02-15T02:46:26;2.2;;;2;;
27907;SDS011;15249;48.092;11.484;2024-02-15T02:47:27;2.2;;;2;;
27907;SDS011;15249;48.092;11.484;2024-02-15T02:48:27;2.2;;;2;;
27907;SDS011;15249;48.092;11.484;2024-02-15T02:49:27;2.2;;;2;;
27907;SDS011;15249;48.092;11.484;2024-02-15T02:50:28;2.2;;;2;;
27907;SDS011;15249;48.092;11.484;2024-02-15T02:51:28;2.2;;;2;;
27907;SDS011;15249;48.092;11.484;2024-02-15T02:52:29;2.2;;;2;;
27907;SDS011;15249;48.092;11.484;2024-02-15T02:53:29;2.2;;;2;;
27907;SDS011;15249;48.092;11.484;2024-02-15T02:54:30;2.2;;;2;;
27907;SDS011;15249;48.092;11.484;2024-02-15T02:55:30;2.2;;;2;;
27907;SDS011;15249;48.092;11.484;2024-02-15T02:56:31;2.2;;;2;;
27907;SDS011;15249;48.092;11.484;2024-02-15T02:57:32;2.2;;;2;;
27907;SDS011;15249;48.092;11.484;2024-02-15T02:58:33;2.2;;;2;;
27907;SDS011;15249;48.092;11.484;2024-02-15T02:59:34;2.2;;;2;;
27907;SDS011;15249;48.092;11.484;2024-02-15T03:00:34;2.2;;;2;;
27907;SDS011;15249;48.092;11.484;2024-02-15T03:01:35;2.8;;;2.05;;
27907;SDS011;15249;48.092;11.484;2024-02-15T03:02:35;2.8;;;2.05;;
27907;SDS011;15249;48.092;11.484;2024-02-15T03:03:36;2.8;;;2.05;;
27907;SDS011;15249;48.092;11.484;2024-02-15T03:04:38;2.8;;;2.05;;
27907;SDS011;15249;48.092;11.484;2024-02-15T03:05:40;2.8;;;2.05;;
27907;SDS011;15249;48.092;11.484;2024-02-15T03:06:42;2.8;;;2.05;;
27907;SDS011;15249;48.092;11.484;2024-02-15T03:07:42;2.8;;;2.05;;
27907;SDS011;15249;48.092;11.484;2024-02-15T03:08:44;2.8;;;2.05;;
27907;SDS011;15249;48.092;11.484;2024-02-15T03:09:45;2.8;;;2.05;;
27907;SDS011;15249;48.092;11.484;2024-02-15T03:10:45;2.8;;;2.05;;
27907;SDS011;15249;48.092;11.484;2024-02-15T03:11:45;2.8;;;2.05;;
27907;SDS011;15249;48.092;11.484;2024-02-15T03:12:46;3.15;;;2.3;;
27907;SDS011;15249;48.092;11.484;2024-02-15T03:13:48;3.15;;;2.3;;
27907;SDS011;15249;48.092;11.484;2024-02-15T03:14:48;3.15;;;2.3;;
27907;SDS011;15249;48.092;11.484;2024-02-15T03:15:49;3.15;;;2.3;;
27907;SDS011;15249;48.092;11.484;2024-02-15T03:16:49;3.15;;;2.3;;
27907;SDS011;15249;48.092;11.484;2024-02-15T03:17:51;3.15;;;2.3;;
27907;SDS011;15249;48.092;11.484;2024-02-15T03:18:52;3.15;;;2.3;;
27907;SDS011;15249;48.092;11.484;2024-02-15T03:19:52;3.15;;;2.3;;
27907;SDS011;15249;48.092;11.484;2024-02-15T03:20:53;3.15;;;2.3;;
27907;SDS011;15249;48.092;11.484;2024-02-15T03:21:53;3.15;;;2.3;;
27907;SDS011;15249;48.092;11.484;2024-02-15T03:22:54;2.35;;;1.9;;
27907;SDS011;15249;48.092;11.484;2024-02-15T03:23:56;2.35;;;1.9;;
27907;SDS011;15249;48.092;11.484;2024-02-15T03:24:56;2.35;;;1.9;;
27907;SDS011;15249;48.092;11.484;2024-02-15T03:25:56;2.35;;;1.9;;
27907;SDS011;15249;48.092;11.484;2024-02-15T03:26:57;2.35;;;1.9;;
27907;SDS011;15249;48.092;11.484;2024-02-15T03:27:58;2.35;;;1.9;;
27907;SDS011;15249;48.092;11.484;2024-02-15T03:28:59;2.35;;;1.9;;
27907;SDS011;15249;48.092;11.484;2024-02-15T03:30:00;2.35;;;1.9;;
27907;SDS011;15249;48.092;11.484;2024-02-15T03:31:01;2.35;;;1.9;;
27907;SDS011;15249;48.092;11.484;2024-02-15T03:32:04;2.35;;;1.9;;
27907;SDS011;15249;48.092;11.484;2024-02-15T03:33:05;2.35;;;1.9;;
27907;SDS011;15249;48.092;11.484;2024-02-15T03:34:06;3.5;;;2.2;;
27907;SDS011;15249;48.092;11.484;2024-02-15T03:35:07;3.5;;;2.2;;
27907;SDS011;15249;48.092;11.484;2024-02-15T03:36:10;3.5;;;2.2;;
27907;SDS011;15249;48.092;11.484;2024-02-15T03:37:10;3.5;;;2.2;;
27907;SDS011;15249;48.092;11.484;2024-02-15T03:38:12;3.5;;;2.2;;
27907;SDS011;15249;48.092;11.484;2024-02-15T03:39:13;3.5;;;2.2;;
27907;SDS011;15249;48.092;11.484;2024-02-15T03:40:14;3.5;;;2.2;;
27907;SDS011;15249;48.092;11.484;2024-02-15T03:41:15;3.5;;;2.2;;
27907;SDS011;15249;48.092;11.484;2024-02-15T03:42:15;3.5;;;2.2;;
27907;SDS011;15249;48.092;11.484;2024-02-15T03:43:16;3.5;;;2.2;;
27907;SDS011;15249;48.092;11.484;2024-02-15T03:44:18;2.65;;;2;;
27907;SDS011;15249;48.092;11.484;2024-02-15T03:45:18;2.65;;;2;;
27907;SDS011;15249;48.092;11.484;2024-02-15T03:46:19;2.65;;;2;;
27907;SDS011;15249;48.092;11.484;2024-02-15T03:47:19;2.65;;;2;;
27907;SDS011;15249;48.092;11.484;2024-02-15T03:48:20;2.65;;;2;;
27907;SDS011;15249;48.092;11.484;2024-02-15T03:49:21;2.65;;;2;;
27907;SDS011;15249;48.092;11.484;2024-02-15T03:50:22;2.65;;;2;;
27907;SDS011;15249;48.092;11.484;2024-02-15T03:51:24;2.65;;;2;;
27907;SDS011;15249;48.092;11.484;2024-02-15T03:52:25;2.65;;;2;;
27907;SDS011;15249;48.092;11.484;2024-02-15T03:53:26;2.65;;;2;;
27907;SDS011;15249;48.092;11.484;2024-02-15T03:54:26;2.65;;;2;;
27907;SDS011;15249;48.092;11.484;2024-02-15T03:55:27;2.45;;;2;;
27907;SDS011;15249;48.092;11.484;2024-02-15T03:56:28;2.45;;;2;;
27907;SDS011;15249;48.092;11.484;2024-02-15T03:57:28;2.45;;;2;;
27907;SDS011;15249;48.092;11.484;2024-02-15T03:58:32;2.45;;;2;;
27907;SDS011;15249;48.092;11.484;2024-02-15T03:59:35;2.45;;;2;;
27907;SDS011;15249;48.092;11.484;2024-02-15T04:00:35;2.45;;;2;;
27907;SDS011;15249;48.092;11.484;2024-02-15T04:01:36;2.45;;;2;;
27907;SDS011;15249;48.092;11.484;2024-02-15T04:02:37;2.45;;;2;;
27907;SDS011;15249;48.092;11.484;2024-02-15T04:03:37;2.45;;;2;;
27907;SDS011;15249;48.092;11.484;2024-02-15T04:04:41;2.45;;;2;;
27907;SDS011;15249;48.092;11.484;2024-02-15T04:05:42;2.6;;;2.1;;
27907;SDS011;15249;48.092;11.484;2024-02-15T04:06:43;2.6;;;2.1;;
27907;SDS011;15249;48.092;11.484;2024-02-15T04:07:43;2.6;;;2.1;;
27907;SDS011;15249;48.092;11.484;2024-02-15T04:08:44;2.6;;;2.1;;
27907;SDS011;15249;48.092;11.484;2024-02-15T04:09:45;2.6;;;2.1;;
27907;SDS011;15249;48.092;11.484;2024-02-15T04:10:46;2.6;;;2.1;;
27907;SDS011;15249;48.092;11.484;2024-02-15T04:11:49;2.6;;;2.1;;
27907;SDS011;15249;48.092;11.484;2024-02-15T04:12:50;2.6;;;2.1;;
27907;SDS011;15249;48.092;11.484;2024-02-15T04:13:51;2.6;;;2.1;;
27907;SDS011;15249;48.092;11.484;2024-02-15T04:14:51;2.6;;;2.1;;
27907;SDS011;15249;48.092;11.484;2024-02-15T04:15:53;2.6;;;2.1;;
27907;SDS011;15249;48.092;11.484;2024-02-15T04:16:53;2.5;;;2.3;;
27907;SDS011;15249;48.092;11.484;2024-02-15T04:17:56;2.5;;;2.3;;
27907;SDS011;15249;48.092;11.484;2024-02-15T04:18:57;2.5;;;2.3;;
27907;SDS011;15249;48.092;11.484;2024-02-15T04:19:58;2.5;;;2.3;;
27907;SDS011;15249;48.092;11.484;2024-02-15T04:20:59;2.5;;;2.3;;
27907;SDS011;15249;48.092;11.484;2024-02-15T04:22:00;2.5;;;2.3;;
27907;SDS011;15249;48.092;11.484;2024-02-15T04:23:00;2.5;;;2.3;;
27907;SDS011;15249;48.092;11.484;2024-02-15T04:24:01;2.5;;;2.3;;
27907;SDS011;15249;48.092;11.484;2024-02-15T04:25:01;2.5;;;2.3;;
27907;SDS011;15249;48.092;11.484;2024-02-15T04:26:03;2.5;;;2.3;;
27907;SDS011;15249;48.092;11.484;2024-02-15T04:27:04;2.5;;;2.3;;
27907;SDS011;15249;48.092;11.484;2024-02-15T04:28:04;2.5;;;2.3;;
27907;SDS011;15249;48.092;11.484;2024-02-15T04:29:05;2.5;;;2.3;;
27907;SDS011;15249;48.092;11.484;2024-02-15T04:30:09;2.5;;;2.3;;
27907;SDS011;15249;48.092;11.484;2024-02-15T04:31:12;2.5;;;2.3;;
27907;SDS011;15249;48.092;11.484;2024-02-15T04:32:13;2.5;;;2.3;;
27907;SDS011;15249;48.092;11.484;2024-02-15T04:33:15;2.5;;;2.3;;
27907;SDS011;15249;48.092;11.484;2024-02-15T04:34:16;2.5;;;2.3;;
27907;SDS011;15249;48.092;11.484;2024-02-15T04:35:17;2.5;;;2.3;;
27907;SDS011;15249;48.092;11.484;2024-02-15T04:36:23;2.5;;;2.3;;
27907;SDS011;15249;48.092;11.484;2024-02-15T04:37:23;2.5;;;2.3;;
27907;SDS011;15249;48.092;11.484;2024-02-15T04:38:25;2.4;;;2.2;;
27907;SDS011;15249;48.092;11.484;2024-02-15T04:39:29;2.4;;;2.2;;
27907;SDS011;15249;48.092;11.484;2024-02-15T04:40:30;2.4;;;2.2;;
27907;SDS011;15249;48.092;11.484;2024-02-15T04:41:30;2.4;;;2.2;;
27907;SDS011;15249;48.092;11.484;2024-02-15T04:42:32;2.4;;;2.2;;
27907;SDS011;15249;48.092;11.484;2024-02-15T04:43:33;2.4;;;2.2;;
27907;SDS011;15249;48.092;11.484;2024-02-15T04:44:35;2.4;;;2.2;;
27907;SDS011;15249;48.092;11.484;2024-02-15T04:45:35;2.4;;;2.2;;
27907;SDS011;15249;48.092;11.484;2024-02-15T04:46:36;2.4;;;2.2;;
27907;SDS011;15249;48.092;11.484;2024-02-15T04:47:36;2.4;;;2.2;;
27907;SDS011;15249;48.092;11.484;2024-02-15T04:48:37;2.4;;;2;;
27907;SDS011;15249;48.092;11.484;2024-02-15T04:49:38;2.4;;;2;;
27907;SDS011;15249;48.092;11.484;2024-02-15T04:50:39;2.4;;;2;;
27907;SDS011;15249;48.092;11.484;2024-02-15T04:51:41;2.4;;;2;;
27907;SDS011;15249;48.092;11.484;2024-02-15T04:52:45;2.4;;;2;;
27907;SDS011;15249;48.092;11.484;2024-02-15T04:53:46;2.4;;;2;;
27907;SDS011;15249;48.092;11.484;2024-02-15T04:54:48;2.4;;;2;;
27907;SDS011;15249;48.092;11.484;2024-02-15T04:55:48;2.4;;;2;;
27907;SDS011;15249;48.092;11.484;2024-02-15T04:56:52;2.4;;;2;;
27907;SDS011;15249;48.092;11.484;2024-02-15T04:57:55;2.4;;;2;;
27907;SDS011;15249;48.092;11.484;2024-02-15T04:58:56;2.4;;;2;;
27907;SDS011;15249;48.092;11.484;2024-02-15T04:59:58;4.2;;;2.25;;
27907;SDS011;15249;48.092;11.484;2024-02-15T05:00:59;4.2;;;2.25;;
27907;SDS011;15249;48.092;11.484;2024-02-15T05:02:00;4.2;;;2.25;;
27907;SDS011;15249;48.092;11.484;2024-02-15T05:03:00;4.2;;;2.25;;
27907;SDS011;15249;48.092;11.484;2024-02-15T05:04:04;4.2;;;2.25;;
27907;SDS011;15249;48.092;11.484;2024-02-15T05:05:05;4.2;;;2.25;;
27907;SDS011;15249;48.092;11.484;2024-02-15T05:06:08;4.2;;;2.25;;
27907;SDS011;15249;48.092;11.484;2024-02-15T05:07:09;4.2;;;2.25;;
27907;SDS011;15249;48.092;11.484;2024-02-15T05:08:09;4.2;;;2.25;;
27907;SDS011;15249;48.092;11.484;2024-02-15T05:09:10;4.2;;;2.25;;
27907;SDS011;15249;48.092;11.484;2024-02-15T05:10:11;2.55;;;2.1;;
27907;SDS011;15249;48.092;11.484;2024-02-15T05:11:15;2.55;;;2.1;;
27907;SDS011;15249;48.092;11.484;2024-02-15T05:12:21;2.55;;;2.1;;
27907;SDS011;15249;48.092;11.484;2024-02-15T05:13:23;2.55;;;2.1;;
27907;SDS011;15249;48.092;11.484;2024-02-15T05:14:24;2.55;;;2.1;;
27907;SDS011;15249;48.092;11.484;2024-02-15T05:15:25;2.55;;;2.1;;
27907;SDS011;15249;48.092;11.484;2024-02-15T05:16:26;2.55;;;2.1;;
27907;SDS011;15249;48.092;11.484;2024-02-15T05:17:28;2.55;;;2.1;;
27907;SDS011;15249;48.092;11.484;2024-02-15T05:18:30;2.55;;;2.1;;
27907;SDS011;15249;48.092;11.484;2024-02-15T05:19:31;2.55;;;2.1;;
27907;SDS011;15249;48.092;11.484;2024-02-15T05:20:31;2.55;;;2.1;;
27907;SDS011;15249;48.092;11.484;2024-02-15T05:21:33;2.1;;;1.9;;
27907;SDS011;15249;48.092;11.484;2024-02-15T05:22:34;2.1;;;1.9;;
27907;SDS011;15249;48.092;11.484;2024-02-15T05:23:34;2.1;;;1.9;;
27907;SDS011;15249;48.092;11.484;2024-02-15T05:24:35;2.1;;;1.9;;
27907;SDS011;15249;48.092;11.484;2024-02-15T05:25:36;2.1;;;1.9;;
27907;SDS011;15249;48.092;11.484;2024-02-15T05:26:36;2.1;;;1.9;;
27907;SDS011;15249;48.092;11.484;2024-02-15T05:27:37;2.1;;;1.9;;
27907;SDS011;15249;48.092;11.484;2024-02-15T05:28:37;2.1;;;1.9;;
27907;SDS011;15249;48.092;11.484;2024-02-15T05:29:39;2.1;;;1.9;;
27907;SDS011;15249;48.092;11.484;2024-02-15T05:30:40;2.1;;;1.9;;
27907;SDS011;15249;48.092;11.484;2024-02-15T05:31:40;2.2;;;2;;
27907;SDS011;15249;48.092;11.484;2024-02-15T05:32:42;2.2;;;2;;
27907;SDS011;15249;48.092;11.484;2024-02-15T05:33:44;2.2;;;2;;
27907;SDS011;15249;48.092;11.484;2024-02-15T05:34:44;2.2;;;2;;
27907;SDS011;15249;48.092;11.484;2024-02-15T05:35:49;2.2;;;2;;
27907;SDS011;15249;48.092;11.484;2024-02-15T05:36:51;2.2;;;2;;
27907;SDS011;15249;48.092;11.484;2024-02-15T05:37:52;2.2;;;2;;
27907;SDS011;15249;48.092;11.484;2024-02-15T05:38:53;2.2;;;2;;
27907;SDS011;15249;48.092;11.484;2024-02-15T05:39:55;2.2;;;2;;
27907;SDS011;15249;48.092;11.484;2024-02-15T05:40:57;2.2;;;2;;
27907;SDS011;15249;48.092;11.484;2024-02-15T05:42:00;2.2;;;2;;
27907;SDS011;15249;48.092;11.484;2024-02-15T05:43:02;2.9;;;1.9;;
27907;SDS011;15249;48.092;11.484;2024-02-15T05:44:06;2.9;;;1.9;;
27907;SDS011;15249;48.092;11.484;2024-02-15T05:45:27;2.9;;;1.9;;
27907;SDS011;15249;48.092;11.484;2024-02-15T05:46:29;2.9;;;1.9;;
27907;SDS011;15249;48.092;11.484;2024-02-15T05:47:30;2.9;;;1.9;;
27907;SDS011;15249;48.092;11.484;2024-02-15T05:48:30;2.9;;;1.9;;
27907;SDS011;15249;48.092;11.484;2024-02-15T05:49:30;2.9;;;1.9;;
27907;SDS011;15249;48.092;11.484;2024-02-15T05:50:31;2.9;;;1.9;;
27907;SDS011;15249;48.092;11.484;2024-02-15T05:51:33;2.9;;;1.9;;
27907;SDS011;15249;48.092;11.484;2024-02-15T05:52:34;2.9;;;1.9;;
27907;SDS011;15249;48.092;11.484;2024-02-15T05:53:35;2.3;;;2.1;;
27907;SDS011;15249;48.092;11.484;2024-02-15T05:54:36;2.3;;;2.1;;
27907;SDS011;15249;48.092;11.484;2024-02-15T05:55:37;2.3;;;2.1;;
27907;SDS011;15249;48.092;11.484;2024-02-15T05:56:39;2.3;;;2.1;;
27907;SDS011;15249;48.092;11.484;2024-02-15T05:57:39;2.3;;;2.1;;
27907;SDS011;15249;48.092;11.484;2024-02-15T05:58:40;2.3;;;2.1;;
27907;SDS011;15249;48.092;11.484;2024-02-15T05:59:41;2.3;;;2.1;;
27907;SDS011;15249;48.092;11.484;2024-02-15T06:00:42;2.3;;;2.1;;
27907;SDS011;15249;48.092;11.484;2024-02-15T06:01:43;2.3;;;2.1;;
27907;SDS011;15249;48.092;11.484;2024-02-15T06:02:43;2.3;;;2.1;;
27907;SDS011;15249;48.092;11.484;2024-02-15T06:03:45;2.55;;;2;;
27907;SDS011;15249;48.092;11.484;2024-02-15T06:04:46;2.55;;;2;;
27907;SDS011;15249;48.092;11.484;2024-02-15T06:05:46;2.55;;;2;;
27907;SDS011;15249;48.092;11.484;2024-02-15T06:06:50;2.55;;;2;;
27907;SDS011;15249;48.092;11.484;2024-02-15T06:07:50;2.55;;;2;;
27907;SDS011;15249;48.092;11.484;2024-02-15T06:08:51;2.55;;;2;;
27907;SDS011;15249;48.092;11.484;2024-02-15T06:09:51;2.55;;;2;;
27907;SDS011;15249;48.092;11.484;2024-02-15T06:10:53;2.55;;;2;;
27907;SDS011;15249;48.092;11.484;2024-02-15T06:11:55;2.55;;;2;;
27907;SDS011;15249;48.092;11.484;2024-02-15T06:12:56;2.55;;;2;;